createdAt,value
2023-03-02T00:00:52.009Z,2.62
2023-03-02T00:03:54.350Z,2.61
2023-03-02T00:07:00.168Z,2.51
2023-03-02T00:10:01.972Z,2.44
2023-03-02T00:13:03.440Z,2.40
2023-03-02T00:16:05.356Z,2.49
2023-03-02T00:19:06.783Z,2.62
2023-03-02T00:22:10.983Z,2.63
2023-03-02T00:25:14.682Z,2.64
2023-03-02T00:28:16.070Z,2.61
2023-03-02T00:31:17.542Z,2.58
2023-03-02T00:34:18.954Z,2.39
2023-03-02T00:37:20.359Z,2.47
2023-03-02T00:40:21.760Z,2.53
2023-03-02T00:43:27.749Z,2.53
2023-03-02T00:46:29.152Z,2.47
2023-03-02T00:49:30.649Z,2.38
2023-03-02T00:52:33.214Z,2.45
2023-03-02T00:55:34.969Z,2.39
2023-03-02T00:58:37.263Z,2.42
2023-03-02T01:01:38.778Z,2.37
2023-03-02T01:04:42.476Z,2.37
2023-03-02T01:07:44.313Z,2.30
2023-03-02T01:10:45.729Z,2.27
2023-03-02T01:13:48.522Z,2.22
2023-03-02T01:16:50.359Z,2.24
2023-03-02T01:19:52.462Z,2.17
2023-03-02T01:22:54.238Z,2.05
2023-03-02T01:25:55.713Z,1.96
2023-03-02T01:28:57.171Z,2.03
2023-03-02T01:31:58.819Z,2.06
2023-03-02T01:35:00.287Z,2.03
2023-03-02T01:38:01.673Z,2.05
2023-03-02T01:41:03.174Z,2.02
2023-03-02T01:44:04.835Z,1.98
2023-03-02T01:47:21.835Z,1.99
2023-03-02T01:50:53.119Z,1.95
2023-03-02T01:54:05.922Z,1.95
2023-03-02T01:57:08.301Z,1.93
2023-03-02T02:00:20.950Z,1.98
2023-03-02T02:03:26.119Z,1.86
2023-03-02T02:06:56.336Z,1.81
2023-03-02T02:09:58.478Z,1.92
2023-03-02T02:13:00.265Z,1.88
2023-03-02T02:16:01.905Z,1.93
2023-03-02T02:19:12.652Z,1.92
2023-03-02T02:22:23.536Z,1.86
2023-03-02T02:25:34.236Z,1.85
2023-03-02T02:28:49.548Z,1.88
2023-03-02T02:31:53.894Z,1.79
2023-03-02T02:35:01.442Z,1.81
2023-03-02T02:38:05.997Z,1.82
2023-03-02T02:41:14.031Z,1.82
2023-03-02T02:44:18.372Z,1.89
2023-03-02T02:47:21.980Z,1.85
2023-03-02T02:50:32.332Z,1.70
2023-03-02T02:53:58.543Z,1.58
2023-03-02T02:57:03.803Z,1.61
2023-03-02T03:00:06.853Z,1.75
2023-03-02T03:03:29.077Z,2.04
2023-03-02T03:06:38.427Z,2.36
2023-03-02T03:09:40.750Z,2.59
2023-03-02T03:12:42.549Z,2.78
2023-03-02T03:15:44.032Z,2.89
2023-03-02T03:18:49.200Z,2.91
2023-03-02T03:21:54.313Z,2.96
2023-03-02T03:24:57.286Z,2.89
2023-03-02T03:27:58.776Z,2.90
2023-03-02T03:31:01.356Z,2.90
2023-03-02T03:34:02.899Z,2.94
2023-03-02T03:37:10.698Z,2.96
2023-03-02T03:40:12.339Z,2.91
2023-03-02T03:43:17.013Z,2.96
2023-03-02T03:46:24.870Z,2.90
2023-03-02T03:49:27.161Z,2.87
2023-03-02T03:52:31.944Z,2.91
2023-03-02T03:55:47.749Z,2.92
2023-03-02T03:58:49.308Z,2.91
2023-03-02T04:02:01.823Z,2.89
2023-03-02T04:05:08.788Z,2.95
2023-03-02T04:08:10.903Z,2.99
2023-03-02T04:11:13.841Z,3.02
2023-03-02T04:14:16.663Z,3.06
2023-03-02T04:17:18.517Z,3.10
2023-03-02T04:20:23.658Z,3.10
2023-03-02T04:23:27.880Z,3.18
2023-03-02T04:26:29.540Z,3.14
2023-03-02T04:29:32.244Z,2.97
2023-03-02T04:32:35.108Z,2.65
2023-03-02T04:35:36.788Z,2.34
2023-03-02T04:38:38.954Z,2.21
2023-03-02T04:41:40.752Z,2.17
2023-03-02T04:44:42.139Z,2.01
2023-03-02T04:47:43.691Z,1.76
2023-03-02T04:50:45.525Z,1.75
2023-03-02T04:53:46.911Z,1.74
2023-03-02T04:56:48.590Z,1.72
2023-03-02T04:59:50.107Z,1.76
2023-03-02T05:02:51.502Z,1.67
2023-03-02T05:05:52.895Z,1.56
2023-03-02T05:08:54.363Z,1.48
2023-03-02T05:11:57.680Z,1.42
2023-03-02T05:14:59.047Z,1.41
2023-03-02T05:18:01.352Z,1.42
2023-03-02T05:21:03.169Z,1.44
2023-03-02T05:24:05.101Z,1.44
2023-03-02T05:27:06.640Z,1.51
2023-03-02T05:30:09.010Z,1.57
2023-03-02T05:33:12.150Z,1.61
2023-03-02T05:36:13.546Z,1.54
2023-03-02T05:39:14.974Z,1.50
2023-03-02T05:42:16.375Z,1.55
2023-03-02T05:45:24.038Z,1.53
2023-03-02T05:48:29.747Z,1.50
2023-03-02T05:51:31.168Z,1.51
2023-03-02T05:54:32.571Z,1.57
2023-03-02T05:57:34.485Z,1.59
2023-03-02T06:00:35.953Z,1.48
2023-03-02T06:03:37.381Z,1.49
2023-03-02T06:06:39.260Z,1.35
2023-03-02T06:09:41.643Z,1.25
2023-03-02T06:12:43.265Z,1.27
2023-03-02T06:15:44.759Z,1.33
2023-03-02T06:18:46.713Z,1.31
2023-03-02T06:21:48.108Z,1.28
2023-03-02T06:24:49.604Z,1.33
2023-03-02T06:27:53.556Z,1.29
2023-03-02T06:30:55.190Z,1.22
2023-03-02T06:33:56.586Z,1.20
2023-03-02T06:36:58.006Z,1.23
2023-03-02T06:39:59.753Z,1.20
2023-03-02T06:43:03.839Z,1.13
2023-03-02T06:46:05.685Z,1.19
2023-03-02T06:49:07.114Z,1.24
2023-03-02T06:52:08.569Z,1.48
2023-03-02T06:55:10.312Z,1.46
2023-03-02T06:58:13.090Z,1.44
2023-03-02T07:01:14.806Z,1.44
2023-03-02T07:04:16.475Z,1.58
2023-03-02T07:07:17.860Z,1.64
2023-03-02T07:10:19.515Z,1.71
2023-03-02T07:13:21.051Z,1.77
2023-03-02T07:16:22.465Z,1.80
2023-03-02T07:19:24.369Z,1.85
2023-03-02T07:22:25.754Z,1.89
2023-03-02T07:25:27.187Z,1.95
2023-03-02T07:28:28.567Z,2.04
2023-03-02T07:31:29.981Z,2.16
2023-03-02T07:34:31.470Z,2.44
2023-03-02T07:37:32.868Z,2.42
2023-03-02T07:40:34.656Z,2.40
2023-03-02T07:43:37.187Z,2.63
2023-03-02T07:46:38.708Z,2.88
2023-03-02T07:49:40.186Z,3.26
2023-03-02T07:52:42.132Z,3.36
2023-03-02T07:55:43.532Z,3.53
2023-03-02T07:58:45.013Z,3.53
2023-03-02T08:01:46.499Z,3.70
2023-03-02T08:04:48.181Z,3.85
2023-03-02T08:07:49.808Z,3.49
2023-03-02T08:10:51.251Z,3.67
2023-03-02T08:13:52.644Z,3.79
2023-03-02T08:16:54.044Z,3.96
2023-03-02T08:19:55.439Z,4.16
2023-03-02T08:22:56.918Z,4.22
2023-03-02T08:25:58.335Z,4.15
2023-03-02T08:28:59.760Z,4.50
2023-03-02T08:32:01.287Z,4.62
2023-03-02T08:35:03.626Z,4.87
2023-03-02T08:38:04.991Z,4.98
2023-03-02T08:41:08.575Z,4.81
2023-03-02T08:44:10.463Z,4.96
2023-03-02T08:47:11.893Z,5.17
2023-03-02T08:50:13.384Z,5.45
2023-03-02T08:53:14.883Z,5.38
2023-03-02T08:56:23.327Z,5.39
2023-03-02T08:59:25.056Z,5.76
2023-03-02T09:02:26.484Z,5.96
2023-03-02T09:05:27.862Z,6.07
2023-03-02T09:08:29.484Z,6.25
2023-03-02T09:11:32.291Z,6.31
2023-03-02T09:14:33.873Z,6.27
2023-03-02T09:17:35.963Z,6.09
2023-03-02T09:20:37.351Z,6.35
2023-03-02T09:23:39.213Z,6.47
2023-03-02T09:26:40.731Z,6.54
2023-03-02T09:29:42.572Z,6.89
2023-03-02T09:32:44.243Z,7.25
2023-03-02T09:35:47.420Z,7.55
2023-03-02T09:38:48.981Z,7.62
2023-03-02T09:41:59.145Z,7.72
2023-03-02T09:45:13.741Z,7.33
2023-03-02T09:48:35.937Z,7.55
2023-03-02T09:51:46.399Z,8.02
2023-03-02T09:54:47.986Z,7.95
2023-03-02T09:57:50.520Z,8.12
2023-03-02T10:00:52.092Z,8.51
2023-03-02T10:04:06.900Z,8.87
2023-03-02T10:07:15.949Z,9.16
2023-03-02T10:10:42.772Z,9.50
2023-03-02T10:13:49.470Z,9.03
2023-03-02T10:17:20.054Z,8.89
2023-03-02T10:20:26.816Z,8.68
2023-03-02T10:23:50.385Z,8.82
2023-03-02T10:26:58.932Z,9.02
2023-03-02T10:30:15.165Z,9.50
2023-03-02T10:33:19.747Z,9.87
2023-03-02T10:36:28.073Z,10.19
2023-03-02T10:39:29.484Z,10.34
2023-03-02T10:42:37.177Z,10.46
2023-03-02T10:45:38.627Z,10.45
2023-03-02T10:48:58.156Z,10.41
2023-03-02T10:52:05.828Z,10.55
2023-03-02T10:55:14.476Z,10.78
2023-03-02T10:58:26.097Z,10.82
2023-03-02T11:01:27.632Z,10.87
2023-03-02T11:04:30.441Z,11.00
2023-03-02T11:07:31.882Z,11.02
2023-03-02T11:10:38.700Z,11.11
2023-03-02T11:13:40.147Z,11.27
2023-03-02T11:16:41.594Z,11.55
2023-03-02T11:19:43.503Z,11.93
2023-03-02T11:22:54.644Z,11.82
2023-03-02T11:26:05.358Z,11.70
2023-03-02T11:29:09.760Z,11.99
2023-03-02T11:32:22.333Z,11.99
2023-03-02T11:35:36.707Z,12.23
2023-03-02T11:38:48.221Z,11.99
2023-03-02T11:41:50.524Z,12.28
2023-03-02T11:44:52.274Z,12.41
2023-03-02T11:48:12.411Z,12.16
2023-03-02T11:51:19.301Z,12.67
2023-03-02T11:54:43.763Z,12.52
2023-03-02T11:57:49.819Z,12.77
2023-03-02T12:00:52.306Z,12.91
2023-03-02T12:03:54.518Z,13.06
2023-03-02T12:06:56.358Z,12.86
2023-03-02T12:10:08.427Z,12.78
2023-03-02T12:13:17.640Z,13.16
2023-03-02T12:16:40.783Z,13.41
2023-03-02T12:19:44.990Z,13.37
2023-03-02T12:22:46.380Z,13.04
2023-03-02T12:25:51.356Z,12.79
2023-03-02T12:29:22.687Z,13.03
2023-03-02T12:32:30.455Z,13.40
2023-03-02T12:35:34.367Z,13.62
2023-03-02T12:38:38.668Z,13.75
2023-03-02T12:42:20.607Z,13.72
2023-03-02T12:45:34.789Z,13.50
2023-03-02T12:49:14.548Z,13.23
2023-03-02T12:52:31.061Z,13.39
2023-03-02T12:55:34.220Z,13.15
2023-03-02T12:58:36.113Z,13.14
2023-03-02T13:01:37.554Z,13.20
2023-03-02T13:04:40.227Z,13.00
2023-03-02T13:07:49.809Z,12.73
2023-03-02T13:11:01.868Z,13.01
2023-03-02T13:14:18.694Z,13.25
2023-03-02T13:17:23.784Z,13.11
2023-03-02T13:20:28.534Z,13.78
2023-03-02T13:23:32.854Z,14.24
2023-03-02T13:26:36.415Z,14.45
2023-03-02T13:29:37.808Z,14.58
2023-03-02T13:32:43.018Z,14.19
2023-03-02T13:35:47.241Z,13.99
2023-03-02T13:38:52.819Z,14.16
2023-03-02T13:41:59.700Z,14.07
2023-03-02T13:45:22.858Z,14.31
2023-03-02T13:48:24.425Z,14.06
2023-03-02T13:51:30.279Z,13.56
2023-03-02T13:54:35.170Z,13.81
2023-03-02T13:57:36.548Z,14.04
2023-03-02T14:00:39.176Z,13.98
2023-03-02T14:03:40.640Z,13.50
2023-03-02T14:06:42.172Z,13.67
2023-03-02T14:09:43.929Z,13.69
2023-03-02T14:12:57.381Z,13.72
2023-03-02T14:15:58.916Z,14.03
2023-03-02T14:19:00.318Z,14.20
2023-03-02T14:22:01.690Z,14.48
2023-03-02T14:25:03.109Z,14.37
2023-03-02T14:28:04.837Z,14.19
2023-03-02T14:31:09.638Z,14.24
2023-03-02T14:34:13.357Z,14.21
2023-03-02T14:37:18.581Z,14.22
2023-03-02T14:40:27.408Z,14.21
2023-03-02T14:43:30.557Z,14.38
2023-03-02T14:46:32.116Z,14.71
2023-03-02T14:49:33.691Z,14.71
2023-03-02T14:52:40.496Z,14.94
2023-03-02T14:55:42.419Z,14.40
2023-03-02T14:58:43.824Z,14.05
2023-03-02T15:01:45.223Z,13.86
2023-03-02T15:04:46.872Z,14.05
2023-03-02T15:07:48.905Z,13.91
2023-03-02T15:10:50.833Z,13.96
2023-03-02T15:13:52.701Z,14.27
2023-03-02T15:16:54.125Z,14.34
2023-03-02T15:19:55.523Z,14.31
2023-03-02T15:22:57.187Z,14.10
2023-03-02T15:26:03.348Z,13.71
2023-03-02T15:29:05.811Z,13.30
2023-03-02T15:32:07.490Z,12.85
2023-03-02T15:35:09.927Z,12.74
2023-03-02T15:38:11.330Z,12.97
2023-03-02T15:41:14.723Z,12.83
2023-03-02T15:44:22.208Z,12.84
2023-03-02T15:47:24.624Z,12.89
2023-03-02T15:50:26.049Z,12.92
2023-03-02T15:53:28.472Z,12.89
2023-03-02T15:56:38.865Z,12.97
2023-03-02T15:59:46.138Z,13.12
2023-03-02T16:02:49.367Z,12.82
2023-03-02T16:05:50.847Z,12.67
2023-03-02T16:08:52.244Z,12.59
2023-03-02T16:11:54.063Z,12.49
2023-03-02T16:14:55.478Z,12.50
2023-03-02T16:17:57.019Z,12.32
2023-03-02T16:20:59.131Z,12.20
2023-03-02T16:24:04.415Z,12.18
2023-03-02T16:27:05.840Z,12.14
2023-03-02T16:30:07.969Z,12.06
2023-03-02T16:33:16.763Z,12.08
2023-03-02T16:36:18.214Z,11.98
2023-03-02T16:39:19.709Z,11.99
2023-03-02T16:42:21.284Z,12.02
2023-03-02T16:45:23.684Z,11.89
2023-03-02T16:48:25.068Z,11.85
2023-03-02T16:51:26.490Z,11.76
2023-03-02T16:54:27.960Z,11.71
2023-03-02T16:57:29.412Z,11.65
2023-03-02T17:00:31.220Z,11.70
2023-03-02T17:03:32.673Z,11.69
2023-03-02T17:06:34.456Z,11.68
2023-03-02T17:09:41.169Z,11.60
2023-03-02T17:12:42.569Z,11.52
2023-03-02T17:15:44.091Z,11.43
2023-03-02T17:18:48.276Z,11.35
2023-03-02T17:21:49.671Z,11.26
2023-03-02T17:24:51.052Z,11.22
2023-03-02T17:27:52.513Z,11.15
2023-03-02T17:30:54.240Z,11.02
2023-03-02T17:33:56.245Z,10.85
2023-03-02T17:37:00.431Z,10.64
2023-03-02T17:40:01.974Z,10.43
2023-03-02T17:43:03.535Z,10.30
2023-03-02T17:46:11.867Z,10.28
2023-03-02T17:49:13.546Z,10.12
2023-03-02T17:52:16.906Z,10.03
2023-03-02T17:55:18.593Z,9.90
2023-03-02T17:58:19.984Z,9.87
2023-03-02T18:01:21.422Z,9.82
2023-03-02T18:04:23.132Z,9.79
2023-03-02T18:07:24.604Z,9.75
2023-03-02T18:10:25.992Z,9.72
2023-03-02T18:13:27.528Z,9.66
2023-03-02T18:16:29.325Z,9.57
2023-03-02T18:19:31.504Z,9.47
2023-03-02T18:22:33.129Z,9.42
2023-03-02T18:25:34.631Z,9.38
2023-03-02T18:28:36.023Z,9.39
2023-03-02T18:31:37.573Z,9.38
2023-03-02T18:34:39.006Z,9.35
2023-03-02T18:37:40.546Z,9.25
2023-03-02T18:40:42.034Z,9.20
2023-03-02T18:43:43.519Z,9.23
2023-03-02T18:46:45.101Z,9.13
2023-03-02T18:49:46.545Z,9.01
2023-03-02T18:52:50.188Z,9.03
2023-03-02T18:55:55.109Z,9.00
2023-03-02T18:58:56.495Z,8.88
2023-03-02T19:01:58.026Z,8.84
2023-03-02T19:04:59.891Z,8.80
2023-03-02T19:08:02.603Z,8.76
2023-03-02T19:11:05.312Z,8.64
2023-03-02T19:14:06.815Z,8.61
2023-03-02T19:17:09.325Z,8.59
2023-03-02T19:20:13.872Z,8.53
2023-03-02T19:23:16.333Z,8.42
2023-03-02T19:26:17.984Z,8.35
2023-03-02T19:29:22.010Z,8.18
2023-03-02T19:32:24.433Z,8.04
2023-03-02T19:35:27.317Z,7.92
2023-03-02T19:38:29.156Z,7.86
2023-03-02T19:41:30.680Z,7.85
2023-03-02T19:44:32.806Z,7.82
2023-03-02T19:47:34.210Z,7.78
2023-03-02T19:50:35.600Z,7.75
2023-03-02T19:53:38.720Z,7.67
2023-03-02T19:56:43.072Z,7.58
2023-03-02T19:59:44.438Z,7.48
2023-03-02T20:02:47.138Z,7.49
2023-03-02T20:05:48.597Z,7.34
2023-03-02T20:08:50.045Z,7.37
2023-03-02T20:11:51.437Z,7.24
2023-03-02T20:14:54.112Z,7.06
2023-03-02T20:17:56.206Z,6.93
2023-03-02T20:20:57.775Z,6.82
2023-03-02T20:24:00.205Z,6.73
2023-03-02T20:27:01.679Z,6.76
2023-03-02T20:30:06.870Z,6.75
2023-03-02T20:33:09.062Z,6.80
2023-03-02T20:36:11.937Z,6.80
2023-03-02T20:39:22.147Z,6.78
2023-03-02T20:42:23.833Z,6.77
2023-03-02T20:45:25.439Z,6.81
2023-03-02T20:48:27.828Z,6.78
2023-03-02T20:51:30.006Z,6.64
2023-03-02T20:54:39.638Z,6.59
2023-03-02T20:57:41.119Z,6.52
2023-03-02T21:00:42.984Z,6.52
2023-03-02T21:03:44.787Z,6.59
2023-03-02T21:06:47.336Z,6.64
2023-03-02T21:09:49.124Z,6.48
2023-03-02T21:12:50.713Z,6.37
2023-03-02T21:15:52.359Z,6.31
2023-03-02T21:18:55.156Z,6.32
2023-03-02T21:21:57.915Z,6.27
2023-03-02T21:24:59.535Z,6.24
2023-03-02T21:28:01.013Z,6.21
2023-03-02T21:31:02.841Z,6.04
2023-03-02T21:34:04.646Z,5.97
2023-03-02T21:37:06.127Z,5.97
2023-03-02T21:40:14.571Z,5.99
2023-03-02T21:43:16.151Z,6.05
2023-03-02T21:46:20.483Z,6.04
2023-03-02T21:49:22.738Z,6.08
2023-03-02T21:52:27.131Z,6.03
2023-03-02T21:55:30.190Z,6.01
2023-03-02T21:58:31.662Z,5.95
2023-03-02T22:01:33.285Z,5.91
2023-03-02T22:04:35.615Z,5.90
2023-03-02T22:07:37.137Z,5.88
2023-03-02T22:10:43.783Z,5.82
2023-03-02T22:13:45.186Z,5.82
2023-03-02T22:16:48.111Z,5.83
2023-03-02T22:19:51.845Z,5.77
2023-03-02T22:22:53.629Z,5.74
2023-03-02T22:26:05.257Z,5.66
2023-03-02T22:29:14.355Z,5.70
2023-03-02T22:32:20.690Z,5.62
2023-03-02T22:35:27.031Z,5.56
2023-03-02T22:38:30.527Z,5.38
2023-03-02T22:41:31.900Z,5.32
2023-03-02T22:44:34.156Z,5.25
2023-03-02T22:47:35.553Z,5.20
2023-03-02T22:50:37.678Z,5.24
2023-03-02T22:53:46.157Z,5.11
2023-03-02T22:56:50.527Z,5.14
2023-03-02T22:59:52.702Z,5.05
2023-03-02T23:02:56.188Z,4.95
2023-03-02T23:05:57.572Z,4.97
2023-03-02T23:09:01.707Z,4.93
2023-03-02T23:12:25.131Z,4.98
2023-03-02T23:15:26.681Z,5.01
2023-03-02T23:18:32.484Z,4.99
2023-03-02T23:21:39.933Z,5.03
2023-03-02T23:24:41.849Z,5.05
2023-03-02T23:27:43.365Z,4.96
2023-03-02T23:30:45.331Z,4.87
2023-03-02T23:33:46.989Z,4.70
2023-03-02T23:36:48.387Z,4.64
2023-03-02T23:39:50.097Z,4.58
2023-03-02T23:42:51.516Z,4.73
2023-03-02T23:45:53.194Z,4.80
2023-03-02T23:48:56.016Z,4.68
2023-03-02T23:51:57.425Z,4.68
2023-03-02T23:54:59.036Z,4.60
2023-03-02T23:58:00.653Z,4.48
